Hartford, Connecticut
Traffic Map
Current Weather Conditions
Hartford, Connecticut
Overcast
Overcast

Feels Like: -2°
Wind Chill: -2° Ceiling: 2100
Heat Index: Visibility: 8mi
Dew Point: Wind: 13mph
Humidity: 86% Direction: 360° (N)
Pressure: 29.4in Gusts: 25mph
Raw Report DataKHFD 241553Z 36011G22KT 8SM OVC021 02/00 A2940 RMK AO2 UPE33RAB03E13 SLP957 P0000 T00220000
Traffic Incident Summary
Active as of:
Severity:
Category:
InformationThere was an issue retrieving the traffic information for this location. Please try a different location or try again shortly.
Advertisements
Track Severe Weather on mobile